createdAt,value
2018-11-12T11:25:46.575Z,16.84967
2018-11-12T11:26:06.048Z,16.829529
2018-11-12T11:26:25.577Z,16.859741
2018-11-12T11:26:45.274Z,16.84967
2018-11-12T11:27:04.708Z,16.879883
2018-11-12T11:27:24.224Z,16.84967
2018-11-12T11:27:43.752Z,16.84967
2018-11-12T11:28:03.320Z,16.84967
2018-11-12T11:28:22.884Z,16.819458
2018-11-12T11:28:42.489Z,16.809387
2018-11-12T11:29:02.061Z,16.789246
2018-11-12T11:29:21.676Z,16.748962
2018-11-12T11:29:41.227Z,16.748962
2018-11-12T11:30:00.862Z,16.748962
2018-11-12T11:30:23.971Z,16.728821
2018-11-12T11:30:43.543Z,16.728821
2018-11-12T11:31:03.551Z,16.748962
2018-11-12T11:31:23.058Z,16.728821
2018-11-12T11:31:42.682Z,16.748962
2018-11-12T11:32:02.228Z,16.759033
2018-11-12T11:32:21.839Z,16.789246
2018-11-12T11:37:54.550Z,16.678467
2018-11-12T11:38:14.140Z,16.678467
2018-11-12T11:38:33.755Z,16.678467
2018-11-12T11:38:54.400Z,16.698608
2018-11-12T11:39:14.335Z,16.698608
2018-11-12T11:39:33.997Z,16.678467
2018-11-12T11:39:53.912Z,16.698608
2018-11-12T11:40:13.633Z,16.668396
2018-11-12T11:40:33.302Z,16.668396
2018-11-12T11:40:53.371Z,16.668396
2018-11-12T11:41:12.960Z,16.658325
2018-11-12T11:41:32.674Z,16.638184
2018-11-12T11:41:52.432Z,16.638184
2018-11-12T11:42:12.118Z,16.638184
2018-11-12T11:42:31.819Z,16.638184
2018-11-12T11:42:51.485Z,16.638184
2018-11-12T11:43:11.270Z,16.628113
2018-11-12T11:43:30.896Z,16.658325
2018-11-12T11:43:50.551Z,16.638184
2018-11-12T11:44:10.196Z,16.658325
2018-11-12T11:44:30.252Z,16.668396
2018-11-12T11:44:50.043Z,16.668396
2018-11-12T11:45:09.808Z,16.678467
2018-11-12T11:45:29.860Z,16.708679
2018-11-12T11:45:49.625Z,16.708679
2018-11-12T11:46:09.470Z,16.708679
2018-11-12T11:46:30.269Z,16.748962
2018-11-12T11:46:49.962Z,16.748962
2018-11-12T11:47:10.997Z,16.759033
2018-11-12T11:47:30.784Z,16.748962
2018-11-12T11:47:50.538Z,16.759033
2018-11-12T11:48:09.950Z,16.759033
2018-11-12T11:48:29.578Z,16.789246
2018-11-12T11:48:49.251Z,16.779175
2018-11-12T11:49:08.837Z,16.779175
2018-11-12T11:49:28.456Z,16.779175
2018-11-12T11:49:49.093Z,16.779175
2018-11-12T11:50:08.901Z,16.809387
2018-11-12T11:50:28.568Z,16.819458
2018-11-12T11:50:47.986Z,16.819458
2018-11-12T11:51:07.627Z,16.819458
2018-11-12T11:51:27.224Z,16.779175
2018-11-12T11:51:46.873Z,16.779175
2018-11-12T11:52:06.494Z,16.759033
2018-11-12T11:52:26.152Z,16.759033
2018-11-12T11:52:45.770Z,16.748962
2018-11-12T11:53:05.399Z,16.748962
2018-11-12T11:53:25.064Z,16.708679
2018-11-12T11:53:44.663Z,16.698608
2018-11-12T11:54:04.287Z,16.698608
2018-11-12T11:54:23.937Z,16.698608
2018-11-12T11:54:43.559Z,16.668396
2018-11-12T11:55:03.198Z,16.668396
2018-11-12T11:55:22.836Z,16.698608
2018-11-12T11:55:42.475Z,16.728821
2018-11-12T11:56:02.091Z,16.708679
2018-11-12T11:56:21.791Z,16.708679
2018-11-12T11:56:41.467Z,16.748962
2018-11-12T11:57:00.973Z,16.748962
2018-11-12T11:57:20.703Z,16.728821
2018-11-12T11:57:40.424Z,16.728821
2018-11-12T11:57:59.875Z,16.708679
2018-11-12T11:58:19.489Z,16.708679
2018-11-12T11:58:39.116Z,16.728821
2018-11-12T11:58:58.733Z,16.748962
2018-11-12T11:59:18.411Z,16.708679
2018-11-12T11:59:38.054Z,16.708679
2018-11-12T11:59:57.703Z,16.708679
2018-11-12T12:00:17.378Z,16.708679
2018-11-12T12:00:37.088Z,16.728821
2018-11-12T12:00:56.756Z,16.708679
2018-11-12T12:01:16.435Z,16.678467
2018-11-12T12:01:36.118Z,16.698608
2018-11-12T12:01:55.686Z,16.668396
2018-11-12T12:02:15.557Z,16.668396
2018-11-12T12:02:35.025Z,16.658325
2018-11-12T12:02:54.729Z,16.668396
2018-11-12T12:03:14.307Z,16.668396
2018-11-12T12:03:33.918Z,16.698608
2018-11-12T12:03:53.547Z,16.678467
2018-11-12T12:04:13.212Z,16.708679
2018-11-12T12:04:33.818Z,16.698608
2018-11-12T12:04:54.428Z,16.678467
2018-11-12T12:05:14.062Z,16.638184
2018-11-12T12:05:33.712Z,16.658325
2018-11-12T12:05:53.332Z,16.638184
2018-11-12T12:06:12.953Z,16.658325
2018-11-12T12:06:32.718Z,16.698608
2018-11-12T12:06:52.352Z,16.728821
2018-11-12T12:07:11.995Z,16.748962
2018-11-12T12:07:32.975Z,16.759033
2018-11-12T12:07:52.578Z,16.789246
2018-11-12T12:08:12.233Z,16.809387
2018-11-12T12:08:31.837Z,16.829529
2018-11-12T12:08:51.587Z,16.829529
2018-11-12T12:09:11.179Z,16.829529
2018-11-12T12:09:30.735Z,16.819458
2018-11-12T12:09:50.365Z,16.809387
2018-11-12T12:10:09.998Z,16.809387
2018-11-12T12:10:29.616Z,16.809387
2018-11-12T12:10:49.242Z,16.809387
2018-11-12T12:11:08.902Z,16.809387
2018-11-12T12:11:28.584Z,16.819458
2018-11-12T12:11:48.171Z,16.779175
2018-11-12T12:12:07.805Z,16.779175
2018-11-12T12:12:27.568Z,16.809387
2018-11-12T12:12:47.367Z,16.809387
2018-11-12T12:13:06.998Z,16.819458
2018-11-12T12:13:26.662Z,16.819458
2018-11-12T12:13:46.420Z,16.84967
2018-11-12T12:14:06.597Z,16.84967
2018-11-12T12:14:26.638Z,16.859741
2018-11-12T12:14:46.688Z,16.879883
2018-11-12T12:15:08.379Z,16.84967
2018-11-12T12:15:28.175Z,16.889954
2018-11-12T12:15:47.920Z,16.879883
2018-11-12T12:16:07.573Z,16.889954
2018-11-12T12:16:28.571Z,16.889954
2018-11-12T12:16:48.341Z,16.910095
2018-11-12T12:17:08.142Z,16.889954
2018-11-12T12:17:28.039Z,16.879883
2018-11-12T12:17:47.672Z,16.889954
2018-11-12T12:18:07.372Z,16.889954
2018-11-12T12:18:27.334Z,16.889954
2018-11-12T12:18:47.158Z,16.940308
2018-11-12T12:19:07.040Z,16.910095
2018-11-12T12:19:27.526Z,16.930237
2018-11-12T12:19:47.192Z,16.940308
2018-11-12T12:20:06.820Z,16.930237
2018-11-12T12:20:26.498Z,16.910095
2018-11-12T12:20:46.919Z,16.930237
2018-11-12T12:21:06.842Z,16.879883
2018-11-12T12:21:26.624Z,16.879883
2018-11-12T12:21:46.337Z,16.889954
2018-11-12T12:22:06.207Z,16.910095
2018-11-12T12:22:26.032Z,16.930237
2018-11-12T12:22:45.653Z,16.940308
2018-11-12T12:23:05.265Z,16.940308
2018-11-12T12:23:24.914Z,16.960449
2018-11-12T12:23:44.545Z,16.960449
2018-11-12T12:24:04.331Z,16.97052
2018-11-12T12:24:24.194Z,16.97052
2018-11-12T12:24:44.033Z,16.980591
2018-11-12T12:25:03.903Z,16.97052
2018-11-12T12:25:24.538Z,17.000732
2018-11-12T12:25:44.245Z,17.000732
2018-11-12T12:26:03.817Z,17.010803
2018-11-12T12:26:23.489Z,17.010803
2018-11-12T12:26:44.171Z,17.000732
2018-11-12T12:27:03.945Z,17.030945
2018-11-12T12:27:23.800Z,17.010803
2018-11-12T12:27:43.772Z,17.030945
2018-11-12T12:28:03.592Z,17.041016
2018-11-12T12:28:23.511Z,17.041016
2018-11-12T12:28:43.423Z,17.061157
2018-11-12T12:29:03.505Z,17.041016
2018-11-12T12:29:24.197Z,17.071228
2018-11-12T12:29:43.912Z,17.071228
2018-11-12T12:30:03.803Z,17.081299
2018-11-12T12:30:23.581Z,17.071228
2018-11-12T12:30:43.281Z,17.071228
2018-11-12T12:31:03.073Z,17.061157
2018-11-12T12:31:23.069Z,17.061157
2018-11-12T12:31:43.015Z,17.041016
2018-11-12T12:32:03.154Z,17.061157
2018-11-12T12:32:22.865Z,17.061157
2018-11-12T12:32:42.733Z,17.061157
2018-11-12T12:33:02.342Z,17.041016
2018-11-12T12:33:22.066Z,17.041016
2018-11-12T12:33:41.839Z,17.041016
2018-11-12T12:34:01.646Z,17.061157
2018-11-12T12:34:21.243Z,17.041016
2018-11-12T12:34:40.959Z,17.061157
2018-11-12T12:35:00.539Z,17.061157
2018-11-12T12:35:20.264Z,17.061157
2018-11-12T12:35:39.935Z,17.041016
2018-11-12T12:35:59.634Z,17.071228
2018-11-12T12:36:19.444Z,17.081299
2018-11-12T12:36:39.308Z,17.121582
2018-11-12T12:36:58.747Z,17.121582
2018-11-12T12:37:18.445Z,17.121582
2018-11-12T12:37:38.231Z,17.071228
2018-11-12T12:37:58.044Z,17.111511
2018-11-12T12:38:17.785Z,17.081299
2018-11-12T12:38:37.418Z,17.121582
2018-11-12T12:38:57.056Z,17.081299
2018-11-12T12:39:16.759Z,17.111511
2018-11-12T12:39:36.558Z,17.081299
2018-11-12T12:39:56.362Z,17.081299
2018-11-12T12:40:16.308Z,17.111511
2018-11-12T12:40:36.242Z,17.111511
2018-11-12T12:40:56.433Z,17.061157
2018-11-12T12:41:16.308Z,17.071228
2018-11-12T12:41:36.190Z,17.061157
2018-11-12T12:41:55.996Z,17.071228
2018-11-12T12:42:15.733Z,17.081299
2018-11-12T12:42:35.663Z,17.071228
2018-11-12T12:42:55.610Z,17.071228
2018-11-12T12:43:15.461Z,17.081299
2018-11-12T12:43:35.152Z,17.081299
2018-11-12T12:43:55.614Z,17.081299
2018-11-12T12:44:15.768Z,17.081299
2018-11-12T12:44:35.538Z,17.071228
2018-11-12T12:44:55.587Z,17.041016
2018-11-12T12:45:15.695Z,17.061157
2018-11-12T12:45:35.362Z,17.081299
2018-11-12T12:45:54.902Z,17.121582
2018-11-12T12:46:14.525Z,17.111511
2018-11-12T12:46:34.141Z,17.121582
2018-11-12T12:46:53.785Z,17.081299
2018-11-12T12:47:13.390Z,17.111511
2018-11-12T12:47:33.031Z,17.111511
2018-11-12T12:47:52.797Z,17.111511
2018-11-12T12:48:12.960Z,17.081299
2018-11-12T12:48:32.605Z,17.041016
2018-11-12T12:48:52.225Z,17.041016
2018-11-12T12:49:11.937Z,17.071228
2018-11-12T12:49:31.689Z,17.041016
2018-11-12T12:49:51.310Z,17.071228
2018-11-12T12:50:10.917Z,17.030945
2018-11-12T12:50:30.553Z,17.041016
2018-11-12T12:50:50.152Z,17.041016
2018-11-12T21:31:15.850Z,17.695618
2018-11-12T21:31:35.386Z,17.22229
2018-11-12T21:31:54.889Z,16.779175
2018-11-12T21:32:14.427Z,16.305847
2018-11-12T21:32:34.069Z,15.933228
2018-11-12T21:32:53.687Z,15.621033
2018-11-12T21:33:13.269Z,15.359192
2018-11-12T21:33:32.814Z,15.187988
2018-11-12T21:33:52.373Z,15.067139
2018-11-12T21:34:11.881Z,14.906006
2018-11-12T21:34:31.447Z,14.754944
2018-11-12T21:34:51.223Z,14.724731
2018-11-12T21:35:10.849Z,14.644165
2018-11-12T21:35:30.475Z,14.58374
2018-11-12T21:35:50.061Z,14.553528
2018-11-12T21:36:09.566Z,14.45282
2018-11-12T21:36:29.251Z,14.362183
2018-11-12T21:36:50.172Z,14.291687
2018-11-12T21:37:09.819Z,14.291687
2018-11-12T21:37:29.314Z,14.281616
2018-11-12T21:37:48.829Z,14.281616
2018-11-12T21:38:09.819Z,14.271545
2018-11-12T21:38:29.359Z,14.251404
2018-11-12T21:38:48.948Z,14.251404
2018-11-12T21:39:08.573Z,14.241333
2018-11-12T21:39:28.173Z,14.170837
2018-11-12T21:39:47.846Z,14.120483
2018-11-12T21:40:07.457Z,14.029846
2018-11-12T21:40:27.046Z,13.989563
2018-11-12T21:40:46.612Z,13.989563
2018-11-12T21:41:06.191Z,13.969421
2018-11-12T21:41:25.809Z,13.959351
2018-11-12T21:41:45.384Z,13.888855
2018-11-12T21:42:04.911Z,13.788147
2018-11-12T21:42:24.423Z,13.707581
2018-11-12T21:42:43.972Z,13.627014
2018-11-12T21:43:03.549Z,13.566589
2018-11-12T21:43:23.265Z,13.516235
2018-11-12T21:43:42.778Z,13.516235
2018-11-12T21:44:02.300Z,13.486023
2018-11-12T21:44:21.885Z,13.486023
2018-11-12T21:44:41.456Z,13.486023
2018-11-12T21:45:00.976Z,13.486023
2018-11-12T21:45:20.536Z,13.486023
2018-11-12T21:45:48.755Z,13.536377
2018-11-12T21:46:08.312Z,13.486023
2018-11-12T21:46:27.914Z,13.536377
2018-11-12T21:46:47.449Z,13.566589
2018-11-12T21:47:08.134Z,13.627014
2018-11-12T21:47:28.176Z,13.657227
2018-11-12T21:47:47.871Z,13.687439
2018-11-12T21:48:07.525Z,13.727722
2018-11-12T21:48:27.173Z,13.747864
2018-11-12T21:48:46.841Z,13.768005
2018-11-12T21:49:06.544Z,13.788147
2018-11-12T21:49:26.226Z,13.788147
2018-11-12T21:49:45.788Z,13.707581
2018-11-12T21:50:05.413Z,13.768005
2018-11-12T21:50:24.866Z,13.788147
2018-11-12T21:50:44.432Z,13.778076
2018-11-12T21:51:04.035Z,13.778076
2018-11-12T21:51:23.550Z,13.788147
2018-11-12T21:51:43.141Z,13.788147
2018-11-12T21:52:03.668Z,13.808289
2018-11-12T21:52:23.276Z,13.818359
2018-11-12T21:52:42.841Z,13.808289
2018-11-12T21:53:02.468Z,13.747864
2018-11-12T21:53:22.062Z,13.687439
2018-11-12T21:53:41.585Z,13.667297
2018-11-12T21:54:01.283Z,13.637085
2018-11-12T21:54:21.510Z,13.657227
2018-11-12T21:54:41.065Z,13.687439
2018-11-12T21:55:00.618Z,13.687439
2018-11-12T21:55:20.150Z,13.707581
2018-11-12T21:55:39.689Z,13.727722
2018-11-12T21:55:59.262Z,13.747864
2018-11-12T21:56:18.810Z,13.778076
2018-11-12T21:56:38.416Z,13.778076
2018-11-12T21:56:58.143Z,13.818359
2018-11-12T21:57:18.665Z,13.838501
2018-11-12T21:57:38.321Z,13.848572
2018-11-12T21:57:57.813Z,13.838501
2018-11-12T21:58:17.365Z,13.808289
2018-11-12T21:58:36.914Z,13.808289
2018-11-12T21:58:56.391Z,13.818359
2018-11-12T21:59:18.892Z,13.818359
2018-11-12T21:59:39.492Z,13.848572
2018-11-12T21:59:59.088Z,13.848572
2018-11-12T22:00:19.531Z,13.848572
2018-11-12T22:00:40.137Z,13.878784
2018-11-12T22:01:01.631Z,13.888855
2018-11-12T22:01:21.282Z,13.878784
2018-11-12T22:01:40.885Z,13.888855
2018-11-12T22:02:01.420Z,13.868713
2018-11-12T22:02:21.182Z,13.878784
2018-11-12T22:02:40.718Z,13.888855
2018-11-12T22:03:00.284Z,13.888855
2018-11-12T22:03:21.381Z,13.888855
2018-11-12T22:03:41.983Z,13.908997
2018-11-12T22:04:04.566Z,13.888855
2018-11-12T22:04:24.666Z,13.888855
2018-11-12T22:04:44.295Z,13.868713
2018-11-12T22:05:04.002Z,13.848572
2018-11-12T22:05:24.481Z,13.808289
2018-11-12T22:05:44.140Z,13.778076
2018-11-12T22:06:03.853Z,13.727722
2018-11-12T22:06:23.684Z,13.747864
2018-11-12T22:06:43.400Z,13.727722
2018-11-12T22:07:03.009Z,13.727722
2018-11-12T22:07:22.748Z,13.667297
2018-11-12T22:07:42.348Z,13.637085
2018-11-12T22:08:01.927Z,13.616943
2018-11-12T22:08:21.531Z,13.566589
2018-11-12T22:08:41.144Z,13.516235
2018-11-12T22:09:00.727Z,13.506165
2018-11-12T22:09:20.264Z,13.455811
2018-11-12T22:09:39.887Z,13.44574
2018-11-12T22:09:59.448Z,13.44574
2018-11-12T22:10:20.254Z,13.415527
2018-11-12T22:10:39.800Z,13.435669
2018-11-12T22:10:59.443Z,13.405457
2018-11-12T22:11:19.099Z,13.385315
2018-11-12T22:11:38.651Z,13.405457
2018-11-12T22:11:58.252Z,13.385315
2018-11-12T22:12:17.901Z,13.385315
2018-11-12T22:12:37.473Z,13.405457
2018-11-12T22:12:57.125Z,13.405457
2018-11-12T22:13:16.716Z,13.355103
2018-11-12T22:13:36.332Z,13.375244
2018-11-12T22:13:56.890Z,13.355103
2018-11-12T22:14:16.597Z,13.385315
2018-11-12T22:14:36.254Z,13.415527
2018-11-12T22:14:56.025Z,13.435669
2018-11-12T22:15:15.572Z,13.435669
2018-11-12T22:15:35.105Z,13.405457
2018-11-12T22:15:54.679Z,13.405457
2018-11-12T22:16:14.239Z,13.405457
2018-11-12T22:16:33.870Z,13.385315
2018-11-12T22:16:53.666Z,13.375244
2018-11-12T22:17:13.634Z,13.32489
2018-11-12T22:17:33.287Z,13.294678
2018-11-12T22:17:52.966Z,13.284607
2018-11-12T22:18:12.500Z,13.234253
2018-11-12T22:18:32.246Z,13.19397
2018-11-12T22:18:51.769Z,13.153687
2018-11-12T22:19:11.575Z,13.173828
2018-11-12T22:19:31.509Z,13.224182
2018-11-12T22:19:51.004Z,13.264465
2018-11-12T22:20:10.433Z,13.304749
2018-11-12T22:20:29.978Z,13.32489
2018-11-12T22:20:49.515Z,13.32489
2018-11-12T22:21:09.246Z,13.32489
2018-11-12T22:21:29.040Z,13.355103
2018-11-12T22:21:48.598Z,13.385315
2018-11-12T22:22:08.217Z,13.44574
2018-11-12T22:22:27.774Z,13.44574
2018-11-12T22:22:48.368Z,13.455811
2018-11-12T22:23:07.900Z,13.455811
2018-11-12T22:23:27.454Z,13.455811
2018-11-12T22:23:47.032Z,13.475952
2018-11-12T22:24:06.596Z,13.516235
2018-11-12T22:24:27.117Z,13.566589
2018-11-12T22:24:46.693Z,13.596802
2018-11-12T22:25:06.643Z,13.627014
2018-11-12T22:25:26.575Z,13.667297
2018-11-12T22:25:46.181Z,13.667297
2018-11-12T22:26:05.747Z,13.727722
2018-11-12T22:26:25.276Z,13.727722
2018-11-12T22:26:45.132Z,13.778076
2018-11-12T22:27:04.969Z,13.768005
2018-11-12T22:27:24.547Z,13.808289
2018-11-12T22:27:44.351Z,13.818359
2018-11-12T22:28:05.029Z,13.848572
2018-11-12T22:28:24.773Z,13.868713
2018-11-12T22:28:44.270Z,13.908997
2018-11-12T22:29:03.835Z,13.888855
2018-11-12T22:29:24.384Z,13.908997
2018-11-12T22:29:44.014Z,13.878784
2018-11-12T22:30:03.458Z,13.878784
2018-11-12T22:30:23.099Z,13.888855
2018-11-12T22:30:42.733Z,13.888855
2018-11-12T22:31:05.077Z,13.908997
2018-11-12T22:31:26.895Z,13.888855
2018-11-12T22:31:46.225Z,13.908997
2018-11-12T22:32:07.012Z,13.888855
2018-11-12T22:32:26.504Z,13.908997
2018-11-12T22:32:46.623Z,13.908997
2018-11-12T22:33:06.176Z,13.919067
2018-11-12T22:33:25.709Z,13.94928
2018-11-12T22:33:45.250Z,13.94928
2018-11-12T22:34:04.801Z,13.94928
2018-11-12T22:34:24.497Z,13.919067
2018-11-12T22:34:44.152Z,13.94928
2018-11-12T22:35:03.725Z,13.919067
2018-11-12T22:35:23.280Z,13.919067
2018-11-12T22:35:42.852Z,13.959351
2018-11-12T22:36:02.430Z,13.959351
2018-11-12T22:36:22.103Z,13.959351
2018-11-12T22:36:42.729Z,13.969421
2018-11-12T22:37:02.844Z,13.959351
2018-11-12T22:37:22.561Z,13.969421
2018-11-12T22:37:42.781Z,13.959351
2018-11-12T22:38:02.264Z,13.989563
2018-11-12T22:38:21.878Z,13.999634
2018-11-12T22:38:41.408Z,14.019775
2018-11-12T22:39:01.134Z,14.039917
2018-11-12T22:39:20.763Z,14.060059
2018-11-12T22:39:40.507Z,14.029846
2018-11-12T22:40:00.143Z,14.029846
2018-11-12T22:40:19.721Z,14.039917
2018-11-12T22:40:39.262Z,14.039917
2018-11-12T22:40:58.856Z,14.019775
2018-11-12T22:41:18.503Z,14.019775
2018-11-12T22:41:38.102Z,14.019775
2018-11-12T22:41:57.827Z,14.060059
2018-11-12T22:42:17.940Z,14.039917
2018-11-12T22:42:37.605Z,14.039917
2018-11-12T22:42:57.247Z,14.060059
2018-11-12T22:43:17.018Z,14.100342
2018-11-12T22:43:36.577Z,14.120483
2018-11-12T22:43:56.114Z,14.100342
2018-11-12T22:44:15.672Z,14.090271
2018-11-12T22:44:35.227Z,14.090271
2018-11-12T22:44:55.766Z,14.100342
2018-11-12T22:45:15.309Z,14.090271
2018-11-12T22:45:34.954Z,14.100342
2018-11-12T22:45:54.489Z,14.100342
2018-11-12T22:46:14.033Z,14.120483
2018-11-12T22:46:33.730Z,14.100342
2018-11-12T22:46:53.294Z,14.100342
2018-11-12T22:47:12.873Z,14.140625
2018-11-12T22:47:33.567Z,14.120483
2018-11-12T22:47:53.131Z,14.150696
2018-11-12T22:48:12.659Z,14.180908
2018-11-12T22:48:32.281Z,14.211121
2018-11-12T22:48:51.797Z,14.221191
2018-11-12T22:49:12.403Z,14.211121
2018-11-12T22:49:32.073Z,14.271545
2018-11-12T22:49:51.633Z,14.291687
2018-11-12T22:50:11.237Z,14.291687
2018-11-12T22:50:30.873Z,14.321899
2018-11-12T22:50:50.515Z,14.321899
2018-11-12T22:51:10.115Z,14.281616
2018-11-12T22:51:29.692Z,14.271545
2018-11-12T22:51:49.283Z,14.271545
2018-11-12T22:52:08.852Z,14.291687
2018-11-12T22:52:28.512Z,14.321899
2018-11-12T22:52:48.075Z,14.321899
2018-11-12T22:53:07.607Z,14.33197
2018-11-12T22:53:28.238Z,14.33197
2018-11-12T22:53:47.860Z,14.352112
2018-11-12T22:54:07.546Z,14.352112
2018-11-12T22:54:27.021Z,14.321899
2018-11-12T22:54:46.633Z,14.291687
2018-11-12T22:55:06.248Z,14.291687
2018-11-12T22:55:25.947Z,14.281616
2018-11-12T22:55:45.467Z,14.251404
2018-11-12T22:56:05.014Z,14.251404
2018-11-12T22:56:24.537Z,14.251404
2018-11-12T22:56:44.095Z,14.251404
2018-11-12T22:57:04.613Z,14.271545
2018-11-12T22:57:24.160Z,14.251404
2018-11-12T22:57:43.748Z,14.281616
2018-11-12T22:58:03.279Z,14.251404
2018-11-12T22:58:22.813Z,14.221191
2018-11-12T22:58:42.427Z,14.241333
2018-11-12T22:59:01.971Z,14.241333
2018-11-12T22:59:22.572Z,14.211121
2018-11-12T22:59:42.241Z,14.170837
2018-11-12T23:00:01.692Z,14.150696
2018-11-12T23:00:21.257Z,14.150696
2018-11-12T23:00:40.860Z,14.150696
2018-11-12T23:01:00.446Z,14.150696
2018-11-12T23:01:20.107Z,14.150696
2018-11-12T23:01:41.755Z,14.180908
2018-11-12T23:02:01.323Z,14.180908
2018-11-12T23:02:20.866Z,14.20105
2018-11-12T23:02:40.526Z,14.180908
2018-11-12T23:03:00.111Z,14.211121
2018-11-12T23:03:20.659Z,14.211121
2018-11-12T23:03:40.516Z,14.20105
2018-11-12T23:04:00.140Z,14.20105
2018-11-12T23:04:19.712Z,14.20105
2018-11-12T23:04:39.288Z,14.221191
2018-11-12T23:04:58.811Z,14.221191
2018-11-12T23:05:19.490Z,14.180908
2018-11-12T23:05:39.167Z,14.170837
2018-11-12T23:05:58.811Z,14.170837
2018-11-12T23:06:18.327Z,14.170837
2018-11-12T23:06:37.872Z,14.150696
2018-11-12T23:06:57.420Z,14.150696
2018-11-12T23:07:17.107Z,14.150696
2018-11-12T23:07:36.714Z,14.170837
2018-11-12T23:07:56.277Z,14.150696
2018-11-12T23:08:15.877Z,14.140625
2018-11-12T23:08:35.492Z,14.140625
2018-11-12T23:08:55.058Z,14.140625
2018-11-12T23:09:15.760Z,14.150696
2018-11-12T23:09:35.366Z,14.140625
2018-11-12T23:09:54.924Z,14.100342
2018-11-12T23:10:15.030Z,14.150696
2018-11-12T23:10:34.558Z,14.140625
2018-11-12T23:10:54.110Z,14.140625
2018-11-12T23:11:13.639Z,14.140625
2018-11-12T23:11:33.176Z,14.140625
2018-11-12T23:11:52.772Z,14.140625
2018-11-12T23:12:12.317Z,14.150696
2018-11-12T23:12:31.918Z,14.140625
2018-11-12T23:12:51.464Z,14.150696
2018-11-12T23:13:10.971Z,14.100342
2018-11-12T23:13:30.500Z,14.100342
2018-11-12T23:13:50.163Z,14.100342
2018-11-12T23:14:09.679Z,14.090271
2018-11-12T23:14:29.217Z,14.090271
2018-11-12T23:14:49.761Z,14.090271
2018-11-12T23:15:09.316Z,14.120483
2018-11-12T23:15:29.882Z,14.140625
2018-11-12T23:15:49.638Z,14.170837
2018-11-12T23:16:09.186Z,14.170837
2018-11-12T23:16:28.755Z,14.170837
2018-11-12T23:16:48.392Z,14.140625
2018-11-12T23:17:07.983Z,14.120483
2018-11-12T23:17:27.558Z,14.120483
2018-11-12T23:17:47.127Z,14.140625
2018-11-12T23:18:06.828Z,14.170837
2018-11-12T23:18:26.374Z,14.150696
2018-11-12T23:18:45.943Z,14.170837
2018-11-12T23:19:06.479Z,14.100342
2018-11-12T23:19:26.180Z,14.140625
2018-11-12T23:19:46.542Z,14.090271
2018-11-12T23:20:06.071Z,14.070129
2018-11-12T23:20:25.606Z,14.120483
2018-11-12T23:20:45.141Z,14.120483
2018-11-12T23:21:04.691Z,14.100342
2018-11-12T23:21:25.241Z,14.070129
2018-11-12T23:21:44.784Z,14.070129
2018-11-12T23:22:04.306Z,14.060059
2018-11-12T23:22:23.874Z,14.070129
2018-11-12T23:22:43.490Z,14.100342
2018-11-12T23:23:03.100Z,14.090271
2018-11-12T23:23:22.611Z,14.100342
2018-11-12T23:23:42.158Z,14.090271
2018-11-12T23:24:02.547Z,14.100342
2018-11-12T23:24:22.110Z,14.090271
2018-11-12T23:24:41.845Z,14.070129
2018-11-12T23:25:01.504Z,14.029846
2018-11-12T23:25:21.094Z,14.039917
2018-11-12T23:25:40.747Z,14.039917
2018-11-12T23:26:00.413Z,14.039917
2018-11-12T23:26:20.181Z,14.029846
2018-11-12T23:26:39.739Z,14.029846
2018-11-12T23:27:00.332Z,13.969421
2018-11-12T23:27:19.942Z,13.989563
2018-11-12T23:27:39.517Z,13.919067
2018-11-12T23:27:59.196Z,13.919067
2018-11-12T23:28:19.221Z,13.908997
2018-11-12T23:28:38.831Z,13.908997
2018-11-12T23:28:58.551Z,13.94928
2018-11-12T23:29:18.184Z,13.969421
2018-11-12T23:29:37.878Z,13.969421
2018-11-12T23:29:57.370Z,13.989563
2018-11-12T23:30:16.909Z,13.989563
2018-11-12T23:30:36.417Z,14.019775
2018-11-12T23:30:56.020Z,14.029846
2018-11-12T23:31:15.585Z,13.999634
2018-11-12T23:31:35.101Z,13.989563
2018-11-12T23:31:54.649Z,14.019775
2018-11-12T23:32:14.155Z,14.019775
2018-11-12T23:32:33.781Z,14.019775
2018-11-12T23:32:53.357Z,13.989563
2018-11-12T23:33:12.955Z,14.019775
2018-11-12T23:33:32.704Z,14.029846
2018-11-12T23:33:52.289Z,13.969421
2018-11-12T23:34:11.941Z,13.989563
2018-11-12T23:34:31.466Z,13.969421
2018-11-12T23:34:51.046Z,13.94928
2018-11-12T23:35:10.636Z,13.94928
2018-11-12T23:35:30.253Z,13.888855
2018-11-12T23:35:50.961Z,13.888855
2018-11-12T23:36:11.253Z,13.908997
2018-11-12T23:36:30.802Z,13.919067
2018-11-12T23:36:50.753Z,13.908997
2018-11-12T23:37:10.617Z,13.908997
2018-11-12T23:37:31.301Z,13.888855
2018-11-12T23:37:51.037Z,13.908997
2018-11-12T23:38:10.766Z,13.908997
2018-11-12T23:38:30.788Z,13.908997
2018-11-12T23:38:50.432Z,13.919067
2018-11-12T23:39:11.027Z,13.919067
2018-11-12T23:39:30.680Z,13.94928
2018-11-12T23:39:51.220Z,13.959351
2018-11-12T23:40:10.857Z,13.959351
2018-11-12T23:40:30.427Z,13.959351
2018-11-12T23:40:51.392Z,13.959351
2018-11-12T23:41:11.347Z,13.959351
2018-11-12T23:41:30.912Z,13.908997
2018-11-12T23:41:50.488Z,13.908997
2018-11-12T23:42:11.030Z,13.878784
2018-11-12T23:42:30.657Z,13.808289
2018-11-12T23:42:50.218Z,13.727722
2018-11-12T23:43:10.383Z,13.657227
2018-11-12T23:43:29.987Z,13.616943
2018-11-12T23:43:49.617Z,13.596802
2018-11-12T23:44:09.420Z,13.536377
2018-11-12T23:44:29.209Z,13.486023
2018-11-12T23:44:48.846Z,13.415527
2018-11-12T23:45:08.431Z,13.375244
2018-11-12T23:45:28.011Z,13.375244
2018-11-12T23:45:47.512Z,13.355103
2018-11-12T23:46:07.240Z,13.355103
2018-11-12T23:46:26.938Z,13.405457
2018-11-12T23:46:46.565Z,13.44574
2018-11-12T23:47:05.957Z,13.486023
2018-11-12T23:47:25.841Z,13.546448
2018-11-12T23:47:45.585Z,13.627014
2018-11-12T23:48:05.303Z,13.627014
2018-11-12T23:48:25.001Z,13.657227
2018-11-12T23:48:45.586Z,13.657227
2018-11-12T23:49:05.256Z,13.69751
2018-11-12T23:49:25.460Z,13.687439
2018-11-12T23:49:45.133Z,13.707581
2018-11-12T23:50:04.815Z,13.707581
2018-11-12T23:50:24.447Z,13.69751
2018-11-12T23:50:44.660Z,13.707581
2018-11-12T23:51:05.179Z,13.747864
2018-11-12T23:51:24.851Z,13.707581
2018-11-12T23:51:44.423Z,13.768005
2018-11-12T23:52:04.139Z,13.778076
2018-11-12T23:52:24.536Z,13.778076
2018-11-12T23:52:44.104Z,13.808289
2018-11-12T23:53:04.827Z,13.818359
2018-11-12T23:53:24.454Z,13.868713
2018-11-12T23:53:44.201Z,13.838501
2018-11-12T23:54:03.875Z,13.838501
2018-11-12T23:54:23.496Z,13.818359
2018-11-12T23:54:43.716Z,13.838501
2018-11-12T23:55:03.287Z,13.818359
2018-11-12T23:55:23.656Z,13.818359
2018-11-12T23:55:44.218Z,13.838501
2018-11-12T23:56:03.873Z,13.878784
2018-11-12T23:56:24.065Z,13.868713
2018-11-12T23:56:43.641Z,13.868713
2018-11-12T23:57:03.267Z,13.878784